createdAt,value
2022-08-04T00:00:25.504Z,99907.63
2022-08-04T00:03:17.172Z,99902.97
2022-08-04T00:05:59.079Z,99902.28
2022-08-04T00:08:50.189Z,99895.16
2022-08-04T00:11:30.456Z,99904.94
2022-08-04T00:14:12.734Z,99896.56
2022-08-04T00:16:42.850Z,99893.78
2022-08-04T00:19:19.286Z,99893.50
2022-08-04T00:21:54.007Z,99892.31
2022-08-04T00:24:23.113Z,99894.56
2022-08-04T00:26:54.483Z,99893.09
2022-08-04T00:29:22.947Z,99901.09
2022-08-04T00:31:56.981Z,99906.59
2022-08-04T00:34:30.617Z,99907.94
2022-08-04T00:36:58.575Z,99905.84
2022-08-04T00:39:27.155Z,99904.19
2022-08-04T00:42:09.131Z,99894.59
2022-08-04T00:45:10.780Z,99899.09
2022-08-04T00:48:11.012Z,99895.78
2022-08-04T00:50:43.743Z,99898.50
2022-08-04T00:54:12.365Z,99909.00
2022-08-04T00:57:03.995Z,99913.66
2022-08-04T00:59:41.016Z,99912.88
2022-08-04T01:02:26.411Z,99912.28
2022-08-04T01:05:07.106Z,99910.06
2022-08-04T01:08:01.506Z,99911.59
2022-08-04T01:11:05.563Z,99907.53
2022-08-04T01:14:17.630Z,99915.34
2022-08-04T01:17:07.593Z,99904.44
2022-08-04T01:19:54.185Z,99912.84
2022-08-04T01:23:19.553Z,99903.97
2022-08-04T01:26:42.105Z,99908.16
2022-08-04T01:29:14.255Z,99901.31
2022-08-04T01:32:17.477Z,99905.38
2022-08-04T01:34:53.007Z,99905.50
2022-08-04T01:38:21.138Z,99907.69
2022-08-04T01:40:55.890Z,99898.13
2022-08-04T01:43:24.475Z,99899.91
2022-08-04T01:45:58.210Z,99898.31
2022-08-04T01:48:27.465Z,99901.69
2022-08-04T01:50:59.603Z,99899.00
2022-08-04T01:53:33.099Z,99899.59
2022-08-04T01:56:02.577Z,99898.13
2022-08-04T01:58:33.267Z,99901.44
2022-08-04T02:01:11.451Z,99902.72
2022-08-04T02:04:21.602Z,99908.66
2022-08-04T02:06:50.304Z,99908.03
2022-08-04T02:09:55.221Z,99912.28
2022-08-04T02:12:42.811Z,99904.63
2022-08-04T02:15:24.895Z,99894.84
2022-08-04T02:18:04.881Z,99889.22
2022-08-04T02:20:35.706Z,99895.81
2022-08-04T02:23:10.951Z,99895.66
2022-08-04T02:25:48.092Z,99900.31
2022-08-04T02:28:48.100Z,99892.50
2022-08-04T02:31:50.078Z,99889.97
2022-08-04T02:34:48.661Z,99895.38
2022-08-04T02:37:18.110Z,99893.50
2022-08-04T02:39:49.484Z,99890.09
2022-08-04T02:42:17.655Z,99886.31
2022-08-04T02:44:50.935Z,99885.13
2022-08-04T02:47:22.695Z,99890.34
2022-08-04T02:49:52.943Z,99886.00
2022-08-04T02:52:21.200Z,99883.22
2022-08-04T02:54:53.858Z,99885.72
2022-08-04T02:57:27.020Z,99886.63
2022-08-04T03:00:14.363Z,99892.03
2022-08-04T03:03:34.976Z,99888.78
2022-08-04T03:06:13.618Z,99881.78
2022-08-04T03:09:13.987Z,99889.56
2022-08-04T03:12:46.024Z,99889.09
2022-08-04T03:15:53.177Z,99893.16
2022-08-04T03:19:10.713Z,99887.66
2022-08-04T03:22:08.638Z,99888.75
2022-08-04T03:25:15.665Z,99896.50
2022-08-04T03:27:51.414Z,99900.44
2022-08-04T03:30:53.056Z,99887.72
2022-08-04T03:33:36.894Z,99898.28
2022-08-04T03:36:47.134Z,99904.75
2022-08-04T03:39:23.423Z,99907.31
2022-08-04T03:43:07.219Z,99901.81
2022-08-04T03:45:40.191Z,99899.75
2022-08-04T03:48:24.804Z,99909.41
2022-08-04T03:52:13.281Z,99901.88
2022-08-04T03:55:16.951Z,99901.66
2022-08-04T03:58:40.540Z,99901.09
2022-08-04T04:02:06.550Z,99899.63
2022-08-04T04:05:05.207Z,99913.47
2022-08-04T04:08:28.894Z,99908.03
2022-08-04T04:11:24.575Z,99911.50
2022-08-04T04:14:21.526Z,99920.13
2022-08-04T04:17:31.549Z,99926.34
2022-08-04T04:20:19.663Z,99920.19
2022-08-04T04:24:11.737Z,99925.94
2022-08-04T04:27:08.127Z,99919.53
2022-08-04T04:29:56.243Z,99930.84
2022-08-04T04:32:32.116Z,99930.41
2022-08-04T04:35:48.001Z,99925.16
2022-08-04T04:38:49.871Z,99932.13
2022-08-04T04:41:36.663Z,99927.53
2022-08-04T04:44:48.336Z,99922.41
2022-08-04T04:48:10.621Z,99921.38
2022-08-04T04:51:08.660Z,99916.19
2022-08-04T04:54:00.051Z,99923.69
2022-08-04T04:56:47.138Z,99923.59
2022-08-04T04:59:20.945Z,99923.22
2022-08-04T05:02:17.332Z,99923.94
2022-08-04T05:05:07.108Z,99922.97
2022-08-04T05:07:55.814Z,99919.09
2022-08-04T05:10:25.597Z,99922.56
2022-08-04T05:14:38.767Z,99916.94
2022-08-04T05:16:48.074Z,99922.25
2022-08-04T05:19:41.074Z,99926.69
2022-08-04T05:22:14.915Z,99923.72
2022-08-04T05:24:46.308Z,99926.28
2022-08-04T05:27:40.469Z,99933.44
2022-08-04T05:30:09.289Z,99931.38
2022-08-04T05:33:04.114Z,99934.84
2022-08-04T05:36:16.949Z,99940.81
2022-08-04T05:38:38.028Z,99945.25
2022-08-04T05:41:06.611Z,99937.31
2022-08-04T05:43:34.783Z,99939.13
2022-08-04T05:46:02.902Z,99936.69
2022-08-04T05:48:32.872Z,99931.91
2022-08-04T05:51:01.800Z,99929.72
2022-08-04T05:53:29.658Z,99937.66
2022-08-04T05:55:59.558Z,99938.41
2022-08-04T05:58:31.944Z,99935.66
2022-08-04T06:01:01.481Z,99933.00
2022-08-04T06:03:31.928Z,99927.31
2022-08-04T06:05:59.847Z,99928.41
2022-08-04T06:08:27.186Z,99925.59
2022-08-04T06:10:58.038Z,99924.25
2022-08-04T06:13:50.911Z,99929.19
2022-08-04T06:16:30.036Z,99923.00
2022-08-04T06:20:00.270Z,99914.00
2022-08-04T06:22:03.582Z,99918.97
2022-08-04T06:24:33.229Z,99927.38
2022-08-04T06:27:00.780Z,99921.38
2022-08-04T06:29:41.226Z,99930.25
2022-08-04T06:32:40.010Z,99927.19
2022-08-04T06:35:10.306Z,99927.22
2022-08-04T06:37:42.580Z,99933.59
2022-08-04T06:40:31.374Z,99926.19
2022-08-04T06:43:07.025Z,99920.59
2022-08-04T06:45:37.709Z,99921.94
2022-08-04T06:48:06.864Z,99931.53
2022-08-04T06:51:33.340Z,99923.06
2022-08-04T06:53:27.490Z,99921.81
2022-08-04T06:55:57.449Z,99932.22
2022-08-04T06:58:25.612Z,99926.34
2022-08-04T07:00:54.963Z,99926.34
2022-08-04T07:03:22.710Z,99921.53
2022-08-04T07:05:52.100Z,99919.94
2022-08-04T07:08:20.995Z,99928.16
2022-08-04T07:10:48.906Z,99921.78
2022-08-04T07:13:17.148Z,99923.41
2022-08-04T07:15:48.667Z,99915.13
2022-08-04T07:18:16.338Z,99925.31
2022-08-04T07:20:45.693Z,99927.16
2022-08-04T07:23:17.751Z,99921.25
2022-08-04T07:26:11.350Z,99922.63
2022-08-04T07:28:40.802Z,99926.34
2022-08-04T07:31:33.382Z,99932.16
2022-08-04T07:34:16.778Z,99934.75
2022-08-04T07:36:55.334Z,99917.97
2022-08-04T07:39:28.438Z,99918.91
2022-08-04T07:41:58.705Z,99917.81
2022-08-04T07:44:26.427Z,99918.56
2022-08-04T07:46:53.755Z,99906.41
2022-08-04T07:49:52.100Z,99906.91
2022-08-04T07:52:09.044Z,99913.88
2022-08-04T07:54:36.460Z,99917.03
2022-08-04T07:57:03.825Z,99922.56
2022-08-04T07:59:31.358Z,99920.81
2022-08-04T08:02:02.568Z,99913.81
2022-08-04T08:04:30.475Z,99907.59
2022-08-04T08:06:58.802Z,99909.13
2022-08-04T08:09:26.224Z,99909.06
2022-08-04T08:12:35.578Z,99898.50
2022-08-04T08:14:43.323Z,99899.31
2022-08-04T08:17:10.377Z,99905.78
2022-08-04T08:19:38.439Z,99910.81
2022-08-04T08:22:05.823Z,99907.03
2022-08-04T08:24:37.137Z,99905.50
2022-08-04T08:27:05.302Z,99905.88
2022-08-04T08:29:35.526Z,99895.69
2022-08-04T08:32:08.071Z,99898.22
2022-08-04T08:34:37.333Z,99901.59
2022-08-04T08:37:19.266Z,99884.06
2022-08-04T08:40:08.431Z,99885.94
2022-08-04T08:44:05.462Z,99888.50
2022-08-04T08:46:49.716Z,99889.09
2022-08-04T08:50:10.669Z,99885.84
2022-08-04T08:53:02.194Z,99888.75
2022-08-04T08:56:08.262Z,99890.81
2022-08-04T08:58:47.197Z,99892.22
2022-08-04T09:01:53.893Z,99881.00
2022-08-04T09:04:36.020Z,99882.50
2022-08-04T09:07:37.726Z,99882.19
2022-08-04T09:10:36.481Z,99883.94
2022-08-04T09:13:10.875Z,99885.53
2022-08-04T09:16:17.810Z,99882.91
2022-08-04T09:19:05.629Z,99880.53
2022-08-04T09:21:40.407Z,99872.69
2022-08-04T09:24:35.906Z,99874.47
2022-08-04T09:27:32.620Z,99864.41
2022-08-04T09:30:08.120Z,99873.75
2022-08-04T09:33:44.683Z,99873.03
2022-08-04T09:36:41.528Z,99881.97
2022-08-04T09:39:20.460Z,99873.28
2022-08-04T09:42:18.303Z,99873.78
2022-08-04T09:45:06.111Z,99881.72
2022-08-04T09:47:59.511Z,99872.31
2022-08-04T09:50:49.938Z,99873.13
2022-08-04T09:53:57.988Z,99872.50
2022-08-04T09:56:55.180Z,99870.34
2022-08-04T09:59:58.439Z,99863.19
2022-08-04T10:02:27.316Z,99868.88
2022-08-04T10:04:56.995Z,99853.72
2022-08-04T10:08:04.822Z,99856.63
2022-08-04T10:10:49.516Z,99854.34
2022-08-04T10:13:28.751Z,99846.91
2022-08-04T10:16:47.738Z,99845.53
2022-08-04T10:19:31.729Z,99853.78
2022-08-04T10:22:30.603Z,99849.16
2022-08-04T10:26:03.437Z,99840.63
2022-08-04T10:28:21.474Z,99832.75
2022-08-04T10:30:55.865Z,99831.72
2022-08-04T10:33:33.247Z,99831.56
2022-08-04T10:36:07.642Z,99829.31
2022-08-04T10:39:07.642Z,99832.63
2022-08-04T10:42:10.463Z,99825.53
2022-08-04T10:44:49.247Z,99823.16
2022-08-04T10:47:25.213Z,99813.31
2022-08-04T10:50:00.032Z,99820.13
2022-08-04T10:52:48.778Z,99807.69
2022-08-04T10:55:21.890Z,99804.28
2022-08-04T10:58:07.602Z,99804.28
2022-08-04T11:00:39.217Z,99813.94
2022-08-04T11:03:38.966Z,99807.31
2022-08-04T11:06:06.668Z,99803.63
2022-08-04T11:08:44.820Z,99803.38
2022-08-04T11:12:02.056Z,99802.00
2022-08-04T11:14:56.388Z,99802.94
2022-08-04T11:17:33.707Z,99791.91
2022-08-04T11:20:33.571Z,99786.06
2022-08-04T11:23:10.960Z,99796.09
2022-08-04T11:25:52.045Z,99798.16
2022-08-04T11:28:43.243Z,99787.69
2022-08-04T11:31:26.316Z,99796.97
2022-08-04T11:34:18.737Z,99790.88
2022-08-04T11:37:05.430Z,99784.69
2022-08-04T11:40:31.352Z,99789.94
2022-08-04T11:43:08.860Z,99789.56
2022-08-04T11:45:42.429Z,99785.22
2022-08-04T11:48:25.387Z,99771.66
2022-08-04T11:50:55.075Z,99776.97
2022-08-04T11:56:36.753Z,99776.72
2022-08-04T11:59:04.758Z,99771.56
2022-08-04T12:02:03.160Z,99760.50
2022-08-04T12:05:06.716Z,99752.81
2022-08-04T12:08:07.641Z,99752.13
2022-08-04T12:11:21.288Z,99744.22
2022-08-04T12:14:26.617Z,99745.03
2022-08-04T12:17:01.075Z,99743.31
2022-08-04T12:20:03.120Z,99744.19
2022-08-04T12:22:31.516Z,99744.19
2022-08-04T12:25:09.370Z,99740.84
2022-08-04T12:27:48.257Z,99734.88
2022-08-04T12:31:02.138Z,99738.03
2022-08-04T12:34:02.820Z,99743.28
2022-08-04T12:36:45.774Z,99740.84
2022-08-04T12:39:23.436Z,99733.88
2022-08-04T12:42:08.098Z,99736.38
2022-08-04T12:44:39.333Z,99731.19
2022-08-04T12:47:26.860Z,99725.63
2022-08-04T12:50:04.153Z,99733.03
2022-08-04T12:53:01.083Z,99722.91
2022-08-04T12:55:33.596Z,99724.06
2022-08-04T12:58:03.671Z,99724.81
2022-08-04T13:00:41.231Z,99725.94
2022-08-04T13:03:16.995Z,99718.09
2022-08-04T13:05:45.526Z,99714.38
2022-08-04T13:08:13.881Z,99721.56
2022-08-04T13:10:46.728Z,99713.91
2022-08-04T13:13:25.151Z,99718.13
2022-08-04T13:16:07.711Z,99709.22
2022-08-04T13:18:42.858Z,99713.53
2022-08-04T13:21:19.877Z,99709.44
2022-08-04T13:24:10.704Z,99700.91
2022-08-04T13:26:55.624Z,99695.75
2022-08-04T13:30:00.084Z,99694.13
2022-08-04T13:32:28.983Z,99679.66
2022-08-04T13:35:01.063Z,99678.78
2022-08-04T13:37:51.596Z,99680.50
2022-08-04T13:40:23.845Z,99679.84
2022-08-04T13:42:56.272Z,99683.56
2022-08-04T13:45:24.953Z,99683.00
2022-08-04T13:48:31.938Z,99679.50
2022-08-04T13:51:07.317Z,99669.75
2022-08-04T13:53:41.222Z,99664.13
2022-08-04T13:56:11.465Z,99655.00
2022-08-04T13:58:46.824Z,99666.00
2022-08-04T14:01:20.670Z,99663.53
2022-08-04T14:04:25.723Z,99655.53
2022-08-04T14:07:01.793Z,99651.88
2022-08-04T14:09:35.446Z,99660.88
2022-08-04T14:12:38.910Z,99656.47
2022-08-04T14:15:01.204Z,99657.28
2022-08-04T14:17:30.000Z,99656.63
2022-08-04T14:20:03.804Z,99651.84
2022-08-04T14:22:37.060Z,99646.16
2022-08-04T14:25:17.798Z,99647.88
2022-08-04T14:27:53.605Z,99646.78
2022-08-04T14:30:36.183Z,99642.38
2022-08-04T14:34:02.598Z,99636.91
2022-08-04T14:36:01.518Z,99635.16
2022-08-04T14:39:00.278Z,99632.50
2022-08-04T14:41:32.624Z,99629.50
2022-08-04T14:44:03.789Z,99622.69
2022-08-04T14:46:36.542Z,99623.56
2022-08-04T14:49:13.283Z,99616.84
2022-08-04T14:51:51.430Z,99616.44
2022-08-04T14:54:35.581Z,99620.41
2022-08-04T14:57:06.340Z,99621.66
2022-08-04T15:00:00.512Z,99615.69
2022-08-04T15:02:29.736Z,99610.81
2022-08-04T15:04:57.876Z,99608.22
2022-08-04T15:07:25.721Z,99612.88
2022-08-04T15:09:53.034Z,99608.06
2022-08-04T15:12:21.041Z,99600.47
2022-08-04T15:14:48.299Z,99609.44
2022-08-04T15:17:30.265Z,99607.19
2022-08-04T15:19:58.028Z,99608.44
2022-08-04T15:22:25.330Z,99597.53
2022-08-04T15:24:55.360Z,99592.44
2022-08-04T15:27:28.615Z,99588.22
2022-08-04T15:30:02.252Z,99594.28
2022-08-04T15:32:35.019Z,99590.00
2022-08-04T15:35:30.793Z,99597.44
2022-08-04T15:38:15.044Z,99594.94
2022-08-04T15:40:57.425Z,99599.31
2022-08-04T15:43:45.458Z,99592.00
2022-08-04T15:46:43.135Z,99590.63
2022-08-04T15:49:20.428Z,99593.06
2022-08-04T15:51:47.499Z,99581.97
2022-08-04T15:54:23.343Z,99587.06
2022-08-04T15:57:02.150Z,99591.91
2022-08-04T16:00:05.323Z,99581.81
2022-08-04T16:02:32.786Z,99575.94
2022-08-04T16:05:18.147Z,99567.16
2022-08-04T16:08:10.060Z,99574.03
2022-08-04T16:10:40.240Z,99572.84
2022-08-04T16:13:16.910Z,99576.50
2022-08-04T16:15:52.107Z,99579.38
2022-08-04T16:18:31.384Z,99568.34
2022-08-04T16:21:05.172Z,99566.13
2022-08-04T16:23:56.853Z,99563.25
2022-08-04T16:26:37.771Z,99562.25
2022-08-04T16:29:23.532Z,99569.72
2022-08-04T16:32:06.147Z,99568.63
2022-08-04T16:34:53.918Z,99565.06
2022-08-04T16:37:38.436Z,99564.88
2022-08-04T16:40:37.551Z,99566.56
2022-08-04T16:43:18.294Z,99569.81
2022-08-04T16:45:58.912Z,99571.06
2022-08-04T16:48:31.799Z,99564.78
2022-08-04T16:51:23.923Z,99568.66
2022-08-04T16:53:52.539Z,99563.66
2022-08-04T16:56:33.055Z,99565.13
2022-08-04T16:59:12.611Z,99574.19
2022-08-04T17:01:51.792Z,99585.53
2022-08-04T17:04:28.263Z,99584.03
2022-08-04T17:07:01.790Z,99583.56
2022-08-04T17:09:30.211Z,99581.97
2022-08-04T17:11:58.817Z,99579.84
2022-08-04T17:14:31.247Z,99581.16
2022-08-04T17:17:01.122Z,99578.84
2022-08-04T17:19:28.267Z,99571.47
2022-08-04T17:22:04.693Z,99572.34
2022-08-04T17:24:38.808Z,99568.59
2022-08-04T17:28:19.630Z,99571.31
2022-08-04T17:29:55.154Z,99576.53
2022-08-04T17:32:23.381Z,99571.06
2022-08-04T17:34:54.244Z,99570.50
2022-08-04T17:37:53.300Z,99576.72
2022-08-04T17:40:18.421Z,99574.41
2022-08-04T17:44:05.156Z,99575.00
2022-08-04T17:46:29.125Z,99574.63
2022-08-04T17:49:08.273Z,99587.13
2022-08-04T17:52:07.002Z,99586.69
2022-08-04T17:54:40.358Z,99585.81
2022-08-04T17:57:20.675Z,99591.84
2022-08-04T17:59:59.957Z,99600.25
2022-08-04T18:02:34.728Z,99604.41
2022-08-04T18:05:11.604Z,99604.88
2022-08-04T18:08:38.852Z,99606.88
2022-08-04T18:13:28.887Z,99610.53
2022-08-04T18:16:05.034Z,99609.28
2022-08-04T18:18:32.980Z,99609.94
2022-08-04T18:21:02.893Z,99612.78
2022-08-04T18:23:32.906Z,99607.38
2022-08-04T18:26:01.811Z,99615.78
2022-08-04T18:28:33.279Z,99612.69
2022-08-04T18:31:02.023Z,99621.72
2022-08-04T18:33:39.671Z,99621.09
2022-08-04T18:36:33.573Z,99627.69
2022-08-04T18:38:58.621Z,99631.84
2022-08-04T18:41:28.243Z,99633.56
2022-08-04T18:43:56.933Z,99631.91
2022-08-04T18:46:27.340Z,99623.34
2022-08-04T18:48:57.152Z,99629.84
2022-08-04T18:51:30.755Z,99626.22
2022-08-04T18:57:25.197Z,99616.28
2022-08-04T18:59:32.470Z,99624.50
2022-08-04T19:02:12.792Z,99629.41
2022-08-04T19:04:44.815Z,99637.50
2022-08-04T19:07:33.717Z,99643.59
2022-08-04T19:10:04.554Z,99643.59
2022-08-04T19:12:32.502Z,99652.66
2022-08-04T19:15:10.793Z,99645.41
2022-08-04T19:17:54.297Z,99649.84
2022-08-04T19:20:26.768Z,99646.16
2022-08-04T19:24:28.468Z,99657.50
2022-08-04T19:28:34.178Z,99639.41
2022-08-04T19:31:04.726Z,99643.56
2022-08-04T19:33:58.513Z,99649.06
2022-08-04T19:36:28.490Z,99653.50
2022-08-04T19:38:57.798Z,99648.66
2022-08-04T19:41:26.525Z,99648.41
2022-08-04T19:43:54.678Z,99651.38
2022-08-04T19:46:24.777Z,99645.59
2022-08-04T19:48:59.636Z,99650.97
2022-08-04T19:51:33.626Z,99653.31
2022-08-04T19:54:02.758Z,99649.78
2022-08-04T19:56:40.500Z,99652.59
2022-08-04T19:59:10.256Z,99666.41
2022-08-04T20:01:44.826Z,99657.75
2022-08-04T20:04:15.840Z,99665.47
2022-08-04T20:06:43.744Z,99671.50
2022-08-04T20:09:25.801Z,99683.31
2022-08-04T20:11:58.337Z,99687.66
2022-08-04T20:14:32.597Z,99699.28
2022-08-04T20:17:02.791Z,99697.63
2022-08-04T20:19:30.333Z,99699.28
2022-08-04T20:21:58.280Z,99697.88
2022-08-04T20:24:37.791Z,99701.84
2022-08-04T20:27:16.158Z,99697.84
2022-08-04T20:29:50.982Z,99703.19
2022-08-04T20:32:22.136Z,99698.16
2022-08-04T20:34:52.150Z,99704.16
2022-08-04T20:37:23.214Z,99703.41
2022-08-04T20:40:05.175Z,99698.78
2022-08-04T20:42:34.045Z,99698.91
2022-08-04T20:45:02.261Z,99696.75
2022-08-04T20:47:35.182Z,99700.03
2022-08-04T20:50:07.944Z,99700.13
2022-08-04T20:52:37.242Z,99709.22
2022-08-04T20:55:06.840Z,99699.66
2022-08-04T20:57:49.795Z,99698.50
2022-08-04T21:00:29.750Z,99702.31
2022-08-04T21:03:00.623Z,99702.81
2022-08-04T21:05:28.851Z,99699.56
2022-08-04T21:07:58.735Z,99705.50
2022-08-04T21:10:26.492Z,99709.84
2022-08-04T21:12:54.966Z,99716.81
2022-08-04T21:15:26.209Z,99713.53
2022-08-04T21:18:13.920Z,99705.91
2022-08-04T21:20:43.157Z,99712.84
2022-08-04T21:23:10.506Z,99710.34
2022-08-04T21:28:25.672Z,99708.69
2022-08-04T21:30:55.092Z,99711.78
2022-08-04T21:33:43.925Z,99712.91
2022-08-04T21:36:13.918Z,99707.09
2022-08-04T21:38:41.945Z,99707.22
2022-08-04T21:41:20.421Z,99714.53
2022-08-04T21:43:52.495Z,99721.16
2022-08-04T21:46:20.230Z,99725.53
2022-08-04T21:48:48.688Z,99715.03
2022-08-04T21:52:00.636Z,99722.50
2022-08-04T21:54:14.873Z,99742.06
2022-08-04T21:59:31.220Z,99747.47
2022-08-04T22:02:00.829Z,99745.03
2022-08-04T22:04:30.079Z,99736.91
2022-08-04T22:06:57.296Z,99742.84
2022-08-04T22:09:24.229Z,99750.38
2022-08-04T22:11:55.856Z,99753.09
2022-08-04T22:14:29.039Z,99742.31
2022-08-04T22:16:57.034Z,99736.69
2022-08-04T22:19:39.633Z,99734.75
2022-08-04T22:22:12.634Z,99729.78
2022-08-04T22:24:52.144Z,99728.94
2022-08-04T22:27:39.352Z,99729.28
2022-08-04T22:30:13.344Z,99728.00
2022-08-04T22:32:44.345Z,99731.03
2022-08-04T22:35:36.190Z,99722.00
2022-08-04T22:38:06.690Z,99732.94
2022-08-04T22:40:38.708Z,99731.69
2022-08-04T22:43:31.299Z,99731.41
2022-08-04T22:45:52.764Z,99724.13
2022-08-04T22:48:20.677Z,99729.19
2022-08-04T22:50:49.719Z,99718.50
2022-08-04T22:53:18.059Z,99729.22
2022-08-04T22:55:57.454Z,99732.00
2022-08-04T22:58:32.566Z,99737.91
2022-08-04T23:01:00.374Z,99735.19
2022-08-04T23:03:37.108Z,99734.97
2022-08-04T23:06:11.687Z,99741.06
2022-08-04T23:08:43.130Z,99748.28
2022-08-04T23:11:14.755Z,99746.63
2022-08-04T23:13:42.086Z,99750.94
2022-08-04T23:16:10.530Z,99738.88
2022-08-04T23:18:41.778Z,99746.13
2022-08-04T23:21:11.057Z,99754.66
2022-08-04T23:23:45.690Z,99749.34
2022-08-04T23:26:27.605Z,99762.16
2022-08-04T23:28:56.325Z,99770.69
2022-08-04T23:31:24.710Z,99792.16
2022-08-04T23:33:52.371Z,99793.72
2022-08-04T23:36:29.637Z,99784.63
2022-08-04T23:39:04.223Z,99791.28
2022-08-04T23:41:51.403Z,99790.22
2022-08-04T23:44:24.611Z,99790.22
2022-08-04T23:47:04.558Z,99782.47
2022-08-04T23:49:45.057Z,99776.91
2022-08-04T23:52:27.990Z,99776.59
2022-08-04T23:55:00.763Z,99776.06
2022-08-04T23:58:02.142Z,99785.06
